PST,Max TemperatureF,Mean TemperatureF,Min TemperatureF,Max Dew PointF,MeanDew PointF,Min DewpointF,Max Humidity, Mean Humidity, Min Humidity, Max Sea Level PressureIn, Mean Sea Level PressureIn, Min Sea Level PressureIn, Max VisibilityMiles, Mean VisibilityMiles, Min VisibilityMiles, Max Wind SpeedMPH, Mean Wind SpeedMPH, Max Gust SpeedMPH,PrecipitationIn, CloudCover, Events, WindDirDegrees
2011-12-1,60,55,50,47,40,35,80,59,42,29.93,29.85,29.81,10,9,7,32,24,38,0.00,0,,311
2011-12-2,63,56,48,45,36,27,83,50,31,30.01,29.96,29.92,10,9,7,16,7,,0.00,0,,218
2011-12-3,59,51,43,50,44,29,94,78,48,30.21,30.04,29.94,10,10,6,,,,0.00,2,,-1
2011-12-4,60,53,46,46,38,28,90,61,32,30.25,30.17,30.09,10,9,7,25,20,,0.00,0,,281
2011-12-5,59,52,46,48,42,36,89,72,46,30.26,30.18,30.11,10,9,7,15,9,,0.00,0,,63
2011-12-6,57,49,41,41,36,24,89,61,39,30.32,30.27,30.25,10,9,7,13,4,,0.00,0,,51
2011-12-7,59,51,43,46,41,29,93,76,32,30.25,30.15,30.07,10,9,7,15,12,,0.00,0,,313
2011-12-8,59,52,46,51,47,45,96,87,64,30.11,30.07,30.04,9,7,5,18,12,,0.00,1,,298
2011-12-9,61,52,44,53,45,30,96,80,41,30.15,30.11,30.08,10,8,4,9,7,,0.00,1,,292
2011-12-10,57,51,45,52,47,35,100,87,53,30.12,30.08,30.01,10,6,2,22,18,,0.00,1,,290
2011-12-11,55,50,46,47,44,43,93,84,64,30.02,29.95,29.83,10,9,7,12,9,,0.00,5,Rain,304
2011-12-12,54,50,45,49,46,41,94,86,74,29.82,29.76,29.72,10,8,3,16,7,,0.23,6,Rain,264
2011-12-13,55,50,46,47,45,42,93,82,66,30.09,29.93,29.82,10,8,5,20,12,22,0.00,4,,331
2011-12-14,57,51,45,50,46,43,93,86,69,30.25,30.20,30.09,10,7,4,14,10,,0.00,2,,275
2011-12-15,55,50,46,48,46,43,94,84,71,30.24,30.14,30.03,10,8,4,21,16,,0.00,3,,288
2011-12-16,62,56,50,47,42,34,77,63,42,30.11,30.06,30.02,10,9,7,23,15,28,0.00,1,,347
2011-12-17,63,56,50,48,42,35,83,61,35,30.12,30.07,30.02,10,10,10,,,,0.00,6,Rain,-1
2011-12-18,60,54,48,48,45,36,88,76,49,30.17,30.10,30.06,10,10,9,,,,0.00,4,,-1
2011-12-19,53,50,48,48,46,45,90,84,74,30.08,30.03,29.98,10,9,7,14,11,,0.00,7,,280
2011-12-20,59,52,44,50,45,40,96,79,55,30.05,30.01,29.96,10,9,7,12,8,,0.00,1,,318
2011-12-21,57,52,48,49,46,35,93,82,49,30.07,30.02,29.98,10,8,7,18,15,,0.00,3,,286
2011-12-22,57,52,48,50,43,32,83,70,40,30.38,30.21,30.07,10,9,7,21,8,,0.00,3,,46
2011-12-23,61,54,46,45,39,26,90,63,26,30.46,30.40,30.37,10,10,10,,,,0.00,0,,-1
2011-12-24,69,57,45,46,26,7,76,41,9,30.37,30.33,30.29,10,10,7,6,5,,0.00,0,,70
2011-12-25,69,58,46,45,34,22,77,47,18,30.33,30.26,30.19,10,10,7,13,7,,0.00,0,,335
2011-12-26,62,55,48,51,43,28,96,69,37,30.25,30.20,30.17,10,8,6,16,8,,0.00,0,,310
2011-12-27,60,53,46,51,46,28,94,82,41,30.23,30.19,30.15,10,8,5,13,10,,0.00,3,,308
2011-12-28,73,62,50,46,29,17,83,35,12,30.22,30.16,30.09,10,9,7,9,6,,0.00,0,,312
2011-12-29,71,61,51,52,41,17,90,53,18,30.09,30.02,29.98,10,9,7,9,6,,0.00,1,,305
2011-12-30,57,54,50,54,51,46,100,91,75,30.09,30.03,29.99,10,5,0,18,11,23,0.00,2,Fog,295
2011-12-31,61,52,44,54,46,37,100,86,53,30.08,30.02,29.98,10,4,0,7,5,,0.00,2,Fog,99